sensor_id;sensor_type;location;lat;lon;timestamp;temperature;humidity
43185;DHT22;28803;52.308;19.096;2022-10-31T00:01:24;7.80;99.90
43185;DHT22;28803;52.308;19.096;2022-10-31T00:03:52;7.80;99.90
43185;DHT22;28803;52.308;19.096;2022-10-31T00:06:21;7.70;99.90
43185;DHT22;28803;52.308;19.096;2022-10-31T00:08:56;7.60;99.90
43185;DHT22;28803;52.308;19.096;2022-10-31T00:11:24;7.60;99.90
43185;DHT22;28803;52.308;19.096;2022-10-31T00:13:51;7.60;99.90
43185;DHT22;28803;52.308;19.096;2022-10-31T00:16:23;7.50;99.90
43185;DHT22;28803;52.308;19.096;2022-10-31T00:18:52;7.60;99.90
43185;DHT22;28803;52.308;19.096;2022-10-31T00:21:19;7.60;99.90
43185;DHT22;28803;52.308;19.096;2022-10-31T00:23:47;7.70;99.90
43185;DHT22;28803;52.308;19.096;2022-10-31T00:26:14;7.70;99.90
43185;DHT22;28803;52.308;19.096;2022-10-31T00:28:41;7.70;99.90
43185;DHT22;28803;52.308;19.096;2022-10-31T00:31:10;7.80;99.90
43185;DHT22;28803;52.308;19.096;2022-10-31T00:33:39;7.90;99.90
43185;DHT22;28803;52.308;19.096;2022-10-31T00:36:07;8.00;99.90
43185;DHT22;28803;52.308;19.096;2022-10-31T00:38:37;8.00;99.90
43185;DHT22;28803;52.308;19.096;2022-10-31T00:41:04;8.00;99.90
43185;DHT22;28803;52.308;19.096;2022-10-31T00:43:31;7.90;99.90
43185;DHT22;28803;52.308;19.096;2022-10-31T00:45:58;7.90;99.90
43185;DHT22;28803;52.308;19.096;2022-10-31T00:48:25;7.80;99.90
43185;DHT22;28803;52.308;19.096;2022-10-31T00:50:52;7.80;99.90
43185;DHT22;28803;52.308;19.096;2022-10-31T00:53:19;7.80;99.90
43185;DHT22;28803;52.308;19.096;2022-10-31T00:55:46;7.80;99.90
43185;DHT22;28803;52.308;19.096;2022-10-31T00:58:13;7.80;99.90
43185;DHT22;28803;52.308;19.096;2022-10-31T01:00:48;7.70;99.90
43185;DHT22;28803;52.308;19.096;2022-10-31T01:03:27;7.70;99.90
43185;DHT22;28803;52.308;19.096;2022-10-31T01:06:09;7.60;99.90
43185;DHT22;28803;52.308;19.096;2022-10-31T01:08:37;7.60;99.90
43185;DHT22;28803;52.308;19.096;2022-10-31T01:11:14;7.50;99.90
43185;DHT22;28803;52.308;19.096;2022-10-31T01:13:43;7.50;99.90
43185;DHT22;28803;52.308;19.096;2022-10-31T01:16:14;7.50;99.90
43185;DHT22;28803;52.308;19.096;2022-10-31T01:18:42;7.50;99.90
43185;DHT22;28803;52.308;19.096;2022-10-31T01:21:21;7.60;99.90
43185;DHT22;28803;52.308;19.096;2022-10-31T01:23:49;7.60;99.90
43185;DHT22;28803;52.308;19.096;2022-10-31T01:26:25;7.60;99.90
43185;DHT22;28803;52.308;19.096;2022-10-31T01:31:25;7.60;99.90
43185;DHT22;28803;52.308;19.096;2022-10-31T01:33:54;7.50;99.90
43185;DHT22;28803;52.308;19.096;2022-10-31T01:36:34;7.50;99.90
43185;DHT22;28803;52.308;19.096;2022-10-31T01:39:05;7.50;99.90
43185;DHT22;28803;52.308;19.096;2022-10-31T01:41:35;7.50;99.90
43185;DHT22;28803;52.308;19.096;2022-10-31T01:47:12;7.50;99.90
43185;DHT22;28803;52.308;19.096;2022-10-31T01:49:47;7.40;99.90
43185;DHT22;28803;52.308;19.096;2022-10-31T01:52:28;7.40;99.90
43185;DHT22;28803;52.308;19.096;2022-10-31T01:54:59;7.40;99.90
43185;DHT22;28803;52.308;19.096;2022-10-31T01:57:26;7.40;99.90
43185;DHT22;28803;52.308;19.096;2022-10-31T01:59:59;7.40;99.90
43185;DHT22;28803;52.308;19.096;2022-10-31T02:02:29;7.30;99.90
43185;DHT22;28803;52.308;19.096;2022-10-31T02:04:59;7.30;99.90
43185;DHT22;28803;52.308;19.096;2022-10-31T02:07:32;7.30;99.90
43185;DHT22;28803;52.308;19.096;2022-10-31T02:10:02;7.30;99.90
43185;DHT22;28803;52.308;19.096;2022-10-31T02:12:31;7.20;99.90
43185;DHT22;28803;52.308;19.096;2022-10-31T02:14:59;7.20;99.90
43185;DHT22;28803;52.308;19.096;2022-10-31T02:17:29;7.20;99.90
43185;DHT22;28803;52.308;19.096;2022-10-31T02:20:19;7.20;99.90
43185;DHT22;28803;52.308;19.096;2022-10-31T02:23:11;7.30;99.90
43185;DHT22;28803;52.308;19.096;2022-10-31T02:29:10;7.30;99.90
43185;DHT22;28803;52.308;19.096;2022-10-31T02:31:48;7.30;99.90
43185;DHT22;28803;52.308;19.096;2022-10-31T02:34:21;7.40;99.90
43185;DHT22;28803;52.308;19.096;2022-10-31T02:42:54;7.50;99.90
43185;DHT22;28803;52.308;19.096;2022-10-31T02:45:36;7.50;99.90
43185;DHT22;28803;52.308;19.096;2022-10-31T02:48:14;7.50;99.90
43185;DHT22;28803;52.308;19.096;2022-10-31T02:50:45;7.60;99.90
43185;DHT22;28803;52.308;19.096;2022-10-31T02:53:16;7.60;99.90
43185;DHT22;28803;52.308;19.096;2022-10-31T02:55:48;7.60;99.90
43185;DHT22;28803;52.308;19.096;2022-10-31T02:58:21;7.60;99.90
43185;DHT22;28803;52.308;19.096;2022-10-31T03:12:38;7.70;99.90
43185;DHT22;28803;52.308;19.096;2022-10-31T03:15:14;7.60;99.90
43185;DHT22;28803;52.308;19.096;2022-10-31T03:17:52;7.60;99.90
43185;DHT22;28803;52.308;19.096;2022-10-31T03:20:27;7.60;99.90
43185;DHT22;28803;52.308;19.096;2022-10-31T03:22:57;7.60;99.90
43185;DHT22;28803;52.308;19.096;2022-10-31T03:25:26;7.60;99.90
43185;DHT22;28803;52.308;19.096;2022-10-31T03:27:54;7.60;99.90
43185;DHT22;28803;52.308;19.096;2022-10-31T03:30:22;7.60;99.90
43185;DHT22;28803;52.308;19.096;2022-10-31T03:32:51;7.60;99.90
43185;DHT22;28803;52.308;19.096;2022-10-31T03:35:21;7.70;99.90
43185;DHT22;28803;52.308;19.096;2022-10-31T03:37:49;7.70;99.90
43185;DHT22;28803;52.308;19.096;2022-10-31T03:40:20;7.70;99.90
43185;DHT22;28803;52.308;19.096;2022-10-31T03:42:54;7.70;99.90
43185;DHT22;28803;52.308;19.096;2022-10-31T03:45:28;7.70;99.90
43185;DHT22;28803;52.308;19.096;2022-10-31T03:47:56;7.80;99.90
43185;DHT22;28803;52.308;19.096;2022-10-31T03:50:28;7.90;99.90
43185;DHT22;28803;52.308;19.096;2022-10-31T03:53:04;8.00;99.90
43185;DHT22;28803;52.308;19.096;2022-10-31T03:58:09;8.10;99.90
43185;DHT22;28803;52.308;19.096;2022-10-31T04:00:44;8.20;99.90
43185;DHT22;28803;52.308;19.096;2022-10-31T04:03:25;8.20;99.90
43185;DHT22;28803;52.308;19.096;2022-10-31T04:05:55;8.30;99.90
43185;DHT22;28803;52.308;19.096;2022-10-31T04:08:27;8.40;99.90
43185;DHT22;28803;52.308;19.096;2022-10-31T04:10:56;8.40;99.90
43185;DHT22;28803;52.308;19.096;2022-10-31T04:13:28;8.40;99.90
43185;DHT22;28803;52.308;19.096;2022-10-31T04:15:56;8.40;99.90
43185;DHT22;28803;52.308;19.096;2022-10-31T04:18:23;8.40;99.90
43185;DHT22;28803;52.308;19.096;2022-10-31T04:21:00;8.50;99.90
43185;DHT22;28803;52.308;19.096;2022-10-31T04:23:29;8.50;99.90
43185;DHT22;28803;52.308;19.096;2022-10-31T04:25:56;8.50;99.90
43185;DHT22;28803;52.308;19.096;2022-10-31T04:28:23;8.60;99.90
43185;DHT22;28803;52.308;19.096;2022-10-31T04:30:51;8.60;99.90
43185;DHT22;28803;52.308;19.096;2022-10-31T04:33:18;8.70;99.90
43185;DHT22;28803;52.308;19.096;2022-10-31T04:35:46;8.60;99.90
43185;DHT22;28803;52.308;19.096;2022-10-31T04:38:13;8.70;99.90
43185;DHT22;28803;52.308;19.096;2022-10-31T04:40:40;8.70;99.90
43185;DHT22;28803;52.308;19.096;2022-10-31T04:43:07;8.70;99.90
43185;DHT22;28803;52.308;19.096;2022-10-31T04:45:34;8.70;99.90
43185;DHT22;28803;52.308;19.096;2022-10-31T04:48:01;8.70;99.90
43185;DHT22;28803;52.308;19.096;2022-10-31T04:50:29;8.60;99.90
43185;DHT22;28803;52.308;19.096;2022-10-31T04:52:56;8.60;99.90
43185;DHT22;28803;52.308;19.096;2022-10-31T04:55:23;8.60;99.90
43185;DHT22;28803;52.308;19.096;2022-10-31T04:57:50;8.60;99.90
43185;DHT22;28803;52.308;19.096;2022-10-31T05:00:19;8.60;99.90
43185;DHT22;28803;52.308;19.096;2022-10-31T05:02:51;8.60;99.90
43185;DHT22;28803;52.308;19.096;2022-10-31T05:05:21;8.60;99.90
43185;DHT22;28803;52.308;19.096;2022-10-31T05:07:50;8.60;99.90
43185;DHT22;28803;52.308;19.096;2022-10-31T05:10:19;8.50;99.90
43185;DHT22;28803;52.308;19.096;2022-10-31T05:12:47;8.50;99.90
43185;DHT22;28803;52.308;19.096;2022-10-31T05:15:16;8.50;99.90
43185;DHT22;28803;52.308;19.096;2022-10-31T05:17:44;8.50;99.90
43185;DHT22;28803;52.308;19.096;2022-10-31T05:20:12;8.40;99.90
43185;DHT22;28803;52.308;19.096;2022-10-31T05:22:47;8.40;99.90
43185;DHT22;28803;52.308;19.096;2022-10-31T05:25:15;8.40;99.90
43185;DHT22;28803;52.308;19.096;2022-10-31T05:27:44;8.40;99.90
43185;DHT22;28803;52.308;19.096;2022-10-31T05:30:14;8.50;99.90
43185;DHT22;28803;52.308;19.096;2022-10-31T05:32:43;8.40;99.90
43185;DHT22;28803;52.308;19.096;2022-10-31T05:35:14;8.40;99.90
43185;DHT22;28803;52.308;19.096;2022-10-31T05:37:42;8.50;99.90
43185;DHT22;28803;52.308;19.096;2022-10-31T05:40:12;8.50;99.90
43185;DHT22;28803;52.308;19.096;2022-10-31T05:42:40;8.50;99.90
43185;DHT22;28803;52.308;19.096;2022-10-31T05:45:09;8.50;99.90
43185;DHT22;28803;52.308;19.096;2022-10-31T05:47:37;8.50;99.90
43185;DHT22;28803;52.308;19.096;2022-10-31T05:50:05;8.50;99.90
43185;DHT22;28803;52.308;19.096;2022-10-31T05:52:32;8.50;99.90
43185;DHT22;28803;52.308;19.096;2022-10-31T05:54:59;8.50;99.90
43185;DHT22;28803;52.308;19.096;2022-10-31T05:57:28;8.60;99.90
43185;DHT22;28803;52.308;19.096;2022-10-31T05:59:55;8.50;99.90
43185;DHT22;28803;52.308;19.096;2022-10-31T06:02:22;8.60;99.90
43185;DHT22;28803;52.308;19.096;2022-10-31T06:04:49;8.60;99.90
43185;DHT22;28803;52.308;19.096;2022-10-31T06:07:16;8.60;99.90
43185;DHT22;28803;52.308;19.096;2022-10-31T06:09:43;8.60;99.90
43185;DHT22;28803;52.308;19.096;2022-10-31T06:12:11;8.60;99.90
43185;DHT22;28803;52.308;19.096;2022-10-31T06:14:37;8.70;99.90
43185;DHT22;28803;52.308;19.096;2022-10-31T06:17:05;8.70;99.90
43185;DHT22;28803;52.308;19.096;2022-10-31T06:19:31;8.80;99.90
43185;DHT22;28803;52.308;19.096;2022-10-31T06:21:59;8.80;99.90
43185;DHT22;28803;52.308;19.096;2022-10-31T06:24:25;8.90;99.90
43185;DHT22;28803;52.308;19.096;2022-10-31T06:26:53;9.00;99.90
43185;DHT22;28803;52.308;19.096;2022-10-31T06:29:20;9.00;99.90
43185;DHT22;28803;52.308;19.096;2022-10-31T06:31:47;9.00;99.90
43185;DHT22;28803;52.308;19.096;2022-10-31T06:34:14;9.10;99.90
43185;DHT22;28803;52.308;19.096;2022-10-31T06:36:41;9.10;99.90
43185;DHT22;28803;52.308;19.096;2022-10-31T06:39:08;9.10;99.90
43185;DHT22;28803;52.308;19.096;2022-10-31T06:41:35;9.20;99.90
43185;DHT22;28803;52.308;19.096;2022-10-31T06:44:03;9.20;99.90
43185;DHT22;28803;52.308;19.096;2022-10-31T06:46:35;9.20;99.90
43185;DHT22;28803;52.308;19.096;2022-10-31T06:49:02;9.20;99.90
43185;DHT22;28803;52.308;19.096;2022-10-31T06:51:29;9.10;99.90
43185;DHT22;28803;52.308;19.096;2022-10-31T06:53:55;9.10;99.90
43185;DHT22;28803;52.308;19.096;2022-10-31T06:56:23;9.10;99.90
43185;DHT22;28803;52.308;19.096;2022-10-31T06:58:50;9.10;99.90
43185;DHT22;28803;52.308;19.096;2022-10-31T07:01:17;9.10;99.90
43185;DHT22;28803;52.308;19.096;2022-10-31T07:03:44;9.10;99.90
43185;DHT22;28803;52.308;19.096;2022-10-31T07:06:11;9.10;99.90
43185;DHT22;28803;52.308;19.096;2022-10-31T07:08:41;9.10;99.90
43185;DHT22;28803;52.308;19.096;2022-10-31T07:11:08;9.10;99.90
43185;DHT22;28803;52.308;19.096;2022-10-31T07:13:35;9.10;99.90
43185;DHT22;28803;52.308;19.096;2022-10-31T07:16:04;9.30;99.90
43185;DHT22;28803;52.308;19.096;2022-10-31T07:18:31;9.40;99.90
43185;DHT22;28803;52.308;19.096;2022-10-31T07:20:59;9.40;99.90
43185;DHT22;28803;52.308;19.096;2022-10-31T07:23:26;9.40;99.90
43185;DHT22;28803;52.308;19.096;2022-10-31T07:25:56;9.40;99.90
43185;DHT22;28803;52.308;19.096;2022-10-31T07:28:25;9.50;99.90
43185;DHT22;28803;52.308;19.096;2022-10-31T07:30:54;9.50;99.90
43185;DHT22;28803;52.308;19.096;2022-10-31T07:33:22;9.60;99.90
43185;DHT22;28803;52.308;19.096;2022-10-31T07:35:49;9.60;99.90
43185;DHT22;28803;52.308;19.096;2022-10-31T07:38:16;9.70;99.90
43185;DHT22;28803;52.308;19.096;2022-10-31T07:40:43;9.70;99.90
43185;DHT22;28803;52.308;19.096;2022-10-31T07:43:11;9.80;99.90
43185;DHT22;28803;52.308;19.096;2022-10-31T07:45:40;9.80;99.90
43185;DHT22;28803;52.308;19.096;2022-10-31T07:48:07;9.90;99.90
43185;DHT22;28803;52.308;19.096;2022-10-31T07:50:35;10.00;99.90
43185;DHT22;28803;52.308;19.096;2022-10-31T07:53:03;10.10;99.90
43185;DHT22;28803;52.308;19.096;2022-10-31T07:55:32;10.20;99.90
43185;DHT22;28803;52.308;19.096;2022-10-31T07:58:00;10.20;99.90
43185;DHT22;28803;52.308;19.096;2022-10-31T08:00:28;10.30;99.90
43185;DHT22;28803;52.308;19.096;2022-10-31T08:03:10;10.40;99.90
43185;DHT22;28803;52.308;19.096;2022-10-31T08:05:39;10.30;99.90
43185;DHT22;28803;52.308;19.096;2022-10-31T08:08:08;10.20;99.90
43185;DHT22;28803;52.308;19.096;2022-10-31T08:10:35;10.20;99.90
43185;DHT22;28803;52.308;19.096;2022-10-31T08:15:34;10.40;99.90
43185;DHT22;28803;52.308;19.096;2022-10-31T08:18:05;10.50;99.90
43185;DHT22;28803;52.308;19.096;2022-10-31T08:20:33;10.60;99.90
43185;DHT22;28803;52.308;19.096;2022-10-31T08:23:03;10.70;99.90
43185;DHT22;28803;52.308;19.096;2022-10-31T08:25:33;10.80;99.90
43185;DHT22;28803;52.308;19.096;2022-10-31T08:28:05;10.90;99.90
43185;DHT22;28803;52.308;19.096;2022-10-31T08:30:34;10.80;99.90
43185;DHT22;28803;52.308;19.096;2022-10-31T08:33:07;10.80;99.90
43185;DHT22;28803;52.308;19.096;2022-10-31T08:35:35;10.70;99.90
43185;DHT22;28803;52.308;19.096;2022-10-31T08:38:02;10.80;99.90
43185;DHT22;28803;52.308;19.096;2022-10-31T08:40:31;10.80;99.90
43185;DHT22;28803;52.308;19.096;2022-10-31T08:43:03;10.80;99.90
43185;DHT22;28803;52.308;19.096;2022-10-31T08:45:32;10.80;99.90
43185;DHT22;28803;52.308;19.096;2022-10-31T08:48:01;11.00;99.90
43185;DHT22;28803;52.308;19.096;2022-10-31T08:50:32;10.90;99.90
43185;DHT22;28803;52.308;19.096;2022-10-31T08:53:16;10.80;99.90
43185;DHT22;28803;52.308;19.096;2022-10-31T08:55:45;10.80;99.90
43185;DHT22;28803;52.308;19.096;2022-10-31T08:58:15;10.90;99.90
43185;DHT22;28803;52.308;19.096;2022-10-31T09:00:44;11.00;99.90
43185;DHT22;28803;52.308;19.096;2022-10-31T09:03:16;11.10;99.90
43185;DHT22;28803;52.308;19.096;2022-10-31T09:05:44;11.10;99.90
43185;DHT22;28803;52.308;19.096;2022-10-31T09:08:13;11.10;99.90
43185;DHT22;28803;52.308;19.096;2022-10-31T09:10:44;11.00;99.90
43185;DHT22;28803;52.308;19.096;2022-10-31T09:13:17;11.00;99.90
43185;DHT22;28803;52.308;19.096;2022-10-31T09:15:46;11.10;99.90
43185;DHT22;28803;52.308;19.096;2022-10-31T09:18:16;11.20;99.90
43185;DHT22;28803;52.308;19.096;2022-10-31T09:20:45;11.40;99.90
43185;DHT22;28803;52.308;19.096;2022-10-31T09:23:17;11.60;99.90
43185;DHT22;28803;52.308;19.096;2022-10-31T09:25:46;11.70;99.90
43185;DHT22;28803;52.308;19.096;2022-10-31T09:28:18;11.80;99.90
43185;DHT22;28803;52.308;19.096;2022-10-31T09:30:48;11.80;99.90
43185;DHT22;28803;52.308;19.096;2022-10-31T09:33:15;11.80;99.90
43185;DHT22;28803;52.308;19.096;2022-10-31T09:35:42;11.90;99.90
43185;DHT22;28803;52.308;19.096;2022-10-31T09:38:15;11.90;99.90
43185;DHT22;28803;52.308;19.096;2022-10-31T09:40:46;11.90;99.90
43185;DHT22;28803;52.308;19.096;2022-10-31T09:43:41;11.90;99.90
43185;DHT22;28803;52.308;19.096;2022-10-31T09:46:21;12.00;99.90
43185;DHT22;28803;52.308;19.096;2022-10-31T09:51:58;12.20;99.90
43185;DHT22;28803;52.308;19.096;2022-10-31T09:55:04;12.30;99.90
43185;DHT22;28803;52.308;19.096;2022-10-31T09:57:36;12.30;99.90
43185;DHT22;28803;52.308;19.096;2022-10-31T10:00:06;12.20;99.90
43185;DHT22;28803;52.308;19.096;2022-10-31T10:02:48;12.20;99.90
43185;DHT22;28803;52.308;19.096;2022-10-31T10:05:22;12.20;99.90
43185;DHT22;28803;52.308;19.096;2022-10-31T10:08:13;12.30;99.90
43185;DHT22;28803;52.308;19.096;2022-10-31T10:10:55;12.30;99.90
43185;DHT22;28803;52.308;19.096;2022-10-31T10:19:17;12.50;99.90
43185;DHT22;28803;52.308;19.096;2022-10-31T10:28:02;12.50;99.90
43185;DHT22;28803;52.308;19.096;2022-10-31T10:30:42;12.50;99.90
43185;DHT22;28803;52.308;19.096;2022-10-31T10:33:23;12.60;99.90
43185;DHT22;28803;52.308;19.096;2022-10-31T10:36:03;12.60;99.90
43185;DHT22;28803;52.308;19.096;2022-10-31T10:38:48;12.60;99.90
43185;DHT22;28803;52.308;19.096;2022-10-31T10:41:18;12.50;99.90
43185;DHT22;28803;52.308;19.096;2022-10-31T10:43:49;12.50;99.90
43185;DHT22;28803;52.308;19.096;2022-10-31T10:49:22;12.50;99.90
43185;DHT22;28803;52.308;19.096;2022-10-31T10:52:24;12.60;99.90
43185;DHT22;28803;52.308;19.096;2022-10-31T10:55:26;12.70;99.90
43185;DHT22;28803;52.308;19.096;2022-10-31T10:58:00;12.70;99.90
43185;DHT22;28803;52.308;19.096;2022-10-31T11:00:41;12.70;99.90
43185;DHT22;28803;52.308;19.096;2022-10-31T11:03:09;12.80;99.90
43185;DHT22;28803;52.308;19.096;2022-10-31T11:05:56;12.80;99.90
43185;DHT22;28803;52.308;19.096;2022-10-31T11:08:33;12.90;99.90
43185;DHT22;28803;52.308;19.096;2022-10-31T11:11:25;12.90;99.90
43185;DHT22;28803;52.308;19.096;2022-10-31T11:14:02;13.00;99.90
43185;DHT22;28803;52.308;19.096;2022-10-31T11:21:42;13.20;99.90
43185;DHT22;28803;52.308;19.096;2022-10-31T11:26:50;13.30;99.90
43185;DHT22;28803;52.308;19.096;2022-10-31T11:29:23;13.20;99.90
43185;DHT22;28803;52.308;19.096;2022-10-31T11:31:53;13.30;99.90
43185;DHT22;28803;52.308;19.096;2022-10-31T11:34:34;13.30;99.90
43185;DHT22;28803;52.308;19.096;2022-10-31T11:37:30;13.30;99.90
43185;DHT22;28803;52.308;19.096;2022-10-31T11:40:02;13.40;99.90
43185;DHT22;28803;52.308;19.096;2022-10-31T11:42:41;13.40;99.90
43185;DHT22;28803;52.308;19.096;2022-10-31T11:45:32;13.50;99.90
43185;DHT22;28803;52.308;19.096;2022-10-31T11:48:01;13.50;99.90
43185;DHT22;28803;52.308;19.096;2022-10-31T11:50:40;13.50;99.90
43185;DHT22;28803;52.308;19.096;2022-10-31T11:53:16;13.50;99.90
43185;DHT22;28803;52.308;19.096;2022-10-31T11:55:45;13.40;99.90
43185;DHT22;28803;52.308;19.096;2022-10-31T11:58:24;13.40;99.90
43185;DHT22;28803;52.308;19.096;2022-10-31T12:00:54;13.40;99.90
43185;DHT22;28803;52.308;19.096;2022-10-31T12:06:36;13.50;99.90
43185;DHT22;28803;52.308;19.096;2022-10-31T12:09:23;13.50;99.90
43185;DHT22;28803;52.308;19.096;2022-10-31T12:14:47;13.50;99.90
43185;DHT22;28803;52.308;19.096;2022-10-31T12:17:20;13.50;99.90
43185;DHT22;28803;52.308;19.096;2022-10-31T12:22:54;13.50;99.90
43185;DHT22;28803;52.308;19.096;2022-10-31T12:42:05;13.30;99.90
43185;DHT22;28803;52.308;19.096;2022-10-31T12:47:36;13.30;99.90
43185;DHT22;28803;52.308;19.096;2022-10-31T12:50:18;13.30;99.90
43185;DHT22;28803;52.308;19.096;2022-10-31T12:56:02;13.30;99.90
43185;DHT22;28803;52.308;19.096;2022-10-31T13:01:13;13.20;99.90
43185;DHT22;28803;52.308;19.096;2022-10-31T13:06:35;13.20;99.90
43185;DHT22;28803;52.308;19.096;2022-10-31T13:09:13;13.20;99.90
43185;DHT22;28803;52.308;19.096;2022-10-31T13:11:46;13.20;99.90
43185;DHT22;28803;52.308;19.096;2022-10-31T13:14:26;13.20;99.90
43185;DHT22;28803;52.308;19.096;2022-10-31T13:16:56;13.20;99.90
43185;DHT22;28803;52.308;19.096;2022-10-31T13:19:30;13.20;99.90
43185;DHT22;28803;52.308;19.096;2022-10-31T13:22:08;13.10;99.90
43185;DHT22;28803;52.308;19.096;2022-10-31T13:24:52;13.20;99.90
43185;DHT22;28803;52.308;19.096;2022-10-31T13:27:24;13.20;99.90
43185;DHT22;28803;52.308;19.096;2022-10-31T13:30:01;13.20;99.90
43185;DHT22;28803;52.308;19.096;2022-10-31T13:32:39;13.20;99.90
43185;DHT22;28803;52.308;19.096;2022-10-31T13:35:30;13.20;99.90
43185;DHT22;28803;52.308;19.096;2022-10-31T13:40:56;13.20;99.90
43185;DHT22;28803;52.308;19.096;2022-10-31T13:46:34;13.10;99.90
43185;DHT22;28803;52.308;19.096;2022-10-31T13:49:03;13.10;99.90
43185;DHT22;28803;52.308;19.096;2022-10-31T13:51:32;13.10;99.90
43185;DHT22;28803;52.308;19.096;2022-10-31T13:54:20;13.10;99.90
43185;DHT22;28803;52.308;19.096;2022-10-31T13:56:51;13.10;99.90
43185;DHT22;28803;52.308;19.096;2022-10-31T13:59:21;13.10;99.90
43185;DHT22;28803;52.308;19.096;2022-10-31T14:01:55;13.00;99.90
43185;DHT22;28803;52.308;19.096;2022-10-31T14:04:48;13.00;99.90
43185;DHT22;28803;52.308;19.096;2022-10-31T14:07:18;13.00;99.90
43185;DHT22;28803;52.308;19.096;2022-10-31T14:09:58;12.90;99.90
43185;DHT22;28803;52.308;19.096;2022-10-31T14:12:30;12.90;99.90
43185;DHT22;28803;52.308;19.096;2022-10-31T14:15:18;12.90;99.90
43185;DHT22;28803;52.308;19.096;2022-10-31T14:22:49;12.90;99.90
43185;DHT22;28803;52.308;19.096;2022-10-31T14:25:35;12.90;99.90
43185;DHT22;28803;52.308;19.096;2022-10-31T14:28:34;12.90;99.90
43185;DHT22;28803;52.308;19.096;2022-10-31T14:31:01;12.80;99.90
43185;DHT22;28803;52.308;19.096;2022-10-31T14:33:30;12.80;99.90
43185;DHT22;28803;52.308;19.096;2022-10-31T14:36:28;12.80;99.90
43185;DHT22;28803;52.308;19.096;2022-10-31T14:39:22;12.80;99.90
43185;DHT22;28803;52.308;19.096;2022-10-31T14:41:54;12.80;99.90
43185;DHT22;28803;52.308;19.096;2022-10-31T14:52:28;12.60;99.90
43185;DHT22;28803;52.308;19.096;2022-10-31T14:54:56;12.60;99.90
43185;DHT22;28803;52.308;19.096;2022-10-31T14:57:31;12.60;99.90
43185;DHT22;28803;52.308;19.096;2022-10-31T15:00:02;12.60;99.90
43185;DHT22;28803;52.308;19.096;2022-10-31T15:02:43;12.50;99.90
43185;DHT22;28803;52.308;19.096;2022-10-31T15:05:13;12.60;99.90
43185;DHT22;28803;52.308;19.096;2022-10-31T15:07:57;12.50;99.90
43185;DHT22;28803;52.308;19.096;2022-10-31T15:10:27;12.50;99.90
43185;DHT22;28803;52.308;19.096;2022-10-31T15:12:56;12.50;99.90
43185;DHT22;28803;52.308;19.096;2022-10-31T15:15:34;12.50;99.90
43185;DHT22;28803;52.308;19.096;2022-10-31T15:18:04;12.50;99.90
43185;DHT22;28803;52.308;19.096;2022-10-31T15:20:38;12.50;99.90
43185;DHT22;28803;52.308;19.096;2022-10-31T15:23:11;12.50;99.90
43185;DHT22;28803;52.308;19.096;2022-10-31T15:25:40;12.50;99.90
43185;DHT22;28803;52.308;19.096;2022-10-31T15:28:19;12.50;99.90
43185;DHT22;28803;52.308;19.096;2022-10-31T15:30:55;12.50;99.90
43185;DHT22;28803;52.308;19.096;2022-10-31T15:33:40;12.50;99.90
43185;DHT22;28803;52.308;19.096;2022-10-31T15:36:22;12.50;99.90
43185;DHT22;28803;52.308;19.096;2022-10-31T15:38:56;12.50;99.90
43185;DHT22;28803;52.308;19.096;2022-10-31T15:41:57;12.50;99.90
43185;DHT22;28803;52.308;19.096;2022-10-31T15:44:32;12.50;99.90
43185;DHT22;28803;52.308;19.096;2022-10-31T15:47:05;12.40;99.90
43185;DHT22;28803;52.308;19.096;2022-10-31T15:49:53;12.40;99.90
43185;DHT22;28803;52.308;19.096;2022-10-31T15:52:34;12.40;99.90
43185;DHT22;28803;52.308;19.096;2022-10-31T15:57:47;12.40;99.90
43185;DHT22;28803;52.308;19.096;2022-10-31T16:00:26;12.40;99.90
43185;DHT22;28803;52.308;19.096;2022-10-31T16:05:48;12.40;99.90
43185;DHT22;28803;52.308;19.096;2022-10-31T16:10:57;12.40;99.90
43185;DHT22;28803;52.308;19.096;2022-10-31T16:14:01;12.40;99.90
43185;DHT22;28803;52.308;19.096;2022-10-31T16:16:29;12.30;99.90
43185;DHT22;28803;52.308;19.096;2022-10-31T16:19:03;12.40;99.90
43185;DHT22;28803;52.308;19.096;2022-10-31T16:21:35;12.40;99.90
43185;DHT22;28803;52.308;19.096;2022-10-31T16:24:28;12.30;99.90
43185;DHT22;28803;52.308;19.096;2022-10-31T16:27:20;12.30;99.90
43185;DHT22;28803;52.308;19.096;2022-10-31T16:29:52;12.30;99.90
43185;DHT22;28803;52.308;19.096;2022-10-31T16:32:35;12.30;99.90
43185;DHT22;28803;52.308;19.096;2022-10-31T16:37:42;12.30;99.90
43185;DHT22;28803;52.308;19.096;2022-10-31T16:40:11;12.30;99.90
43185;DHT22;28803;52.308;19.096;2022-10-31T16:42:43;12.30;99.90
43185;DHT22;28803;52.308;19.096;2022-10-31T16:45:18;12.30;99.90
43185;DHT22;28803;52.308;19.096;2022-10-31T16:47:46;12.30;99.90
43185;DHT22;28803;52.308;19.096;2022-10-31T16:50:24;12.30;99.90
43185;DHT22;28803;52.308;19.096;2022-10-31T16:52:52;12.30;99.90
43185;DHT22;28803;52.308;19.096;2022-10-31T16:55:50;12.20;99.90
43185;DHT22;28803;52.308;19.096;2022-10-31T16:58:23;12.20;99.90
43185;DHT22;28803;52.308;19.096;2022-10-31T17:00:52;12.20;99.90
43185;DHT22;28803;52.308;19.096;2022-10-31T17:03:19;12.20;99.90
43185;DHT22;28803;52.308;19.096;2022-10-31T17:05:46;12.20;99.90
43185;DHT22;28803;52.308;19.096;2022-10-31T17:08:14;12.20;99.90
43185;DHT22;28803;52.308;19.096;2022-10-31T17:10:42;12.20;99.90
43185;DHT22;28803;52.308;19.096;2022-10-31T17:13:19;12.20;99.90
43185;DHT22;28803;52.308;19.096;2022-10-31T17:15:50;12.20;99.90
43185;DHT22;28803;52.308;19.096;2022-10-31T17:18:18;12.20;99.90
43185;DHT22;28803;52.308;19.096;2022-10-31T17:20:57;12.20;99.90
43185;DHT22;28803;52.308;19.096;2022-10-31T17:23:26;12.20;99.90
43185;DHT22;28803;52.308;19.096;2022-10-31T17:25:53;12.20;99.90
43185;DHT22;28803;52.308;19.096;2022-10-31T17:28:20;12.20;99.90
43185;DHT22;28803;52.308;19.096;2022-10-31T17:30:47;12.20;99.90
43185;DHT22;28803;52.308;19.096;2022-10-31T17:33:15;12.10;99.90
43185;DHT22;28803;52.308;19.096;2022-10-31T17:35:43;12.10;99.90
43185;DHT22;28803;52.308;19.096;2022-10-31T17:38:13;12.10;99.90
43185;DHT22;28803;52.308;19.096;2022-10-31T17:40:40;12.20;99.90
43185;DHT22;28803;52.308;19.096;2022-10-31T17:43:10;12.20;99.90
43185;DHT22;28803;52.308;19.096;2022-10-31T17:45:39;12.10;99.90
43185;DHT22;28803;52.308;19.096;2022-10-31T17:48:09;12.20;99.90
43185;DHT22;28803;52.308;19.096;2022-10-31T17:50:37;12.20;99.90
43185;DHT22;28803;52.308;19.096;2022-10-31T17:53:05;12.20;99.90
43185;DHT22;28803;52.308;19.096;2022-10-31T17:55:31;12.20;99.90
43185;DHT22;28803;52.308;19.096;2022-10-31T17:58:04;12.20;99.90
43185;DHT22;28803;52.308;19.096;2022-10-31T18:00:31;12.20;99.90